Terminal Aerodrome Forecast
Issued by NWS

Current Version | Previous Version | Graphics & Text | Print | Product List | Glossary On
Versions: 1 2 3 4 5 6 7 8 9 10 11 12 13 14 15 16 17 18 19 20
521
FTUS41 KILN 181739
TAFLUK
TAF
KLUK 181739Z 1818/1918 18008KT P6SM SKC
     FM182200 23012G20KT P6SM VCSH OVC035
      TEMPO 1822/1824 5SM SHRA OVC025
     FM190000 27016G28KT P6SM BKN040
     FM190600 27014G24KT P6SM OVC028
     FM190900 29012G18KT P6SM OVC018
     FM191600 32012G20KT P6SM SCT025 BKN035=

USA.gov is the U.S. government's official web portal to all federal, state and local government web resources and services.